sensor_id;sensor_type;location;lat;lon;timestamp;P1;durP1;ratioP1;P2;durP2;ratioP2
33836;SDS011;20140;49.356;8.812;2023-04-06T00:01:32;5.07;;;3.80;;
33836;SDS011;20140;49.356;8.812;2023-04-06T00:03:58;4.50;;;4.07;;
33836;SDS011;20140;49.356;8.812;2023-04-06T00:06:24;4.18;;;3.50;;
33836;SDS011;20140;49.356;8.812;2023-04-06T00:08:50;5.43;;;3.90;;
33836;SDS011;20140;49.356;8.812;2023-04-06T00:11:15;5.13;;;4.35;;
33836;SDS011;20140;49.356;8.812;2023-04-06T00:13:41;6.70;;;4.80;;
33836;SDS011;20140;49.356;8.812;2023-04-06T00:16:07;6.10;;;4.13;;
33836;SDS011;20140;49.356;8.812;2023-04-06T00:18:32;5.53;;;4.70;;
33836;SDS011;20140;49.356;8.812;2023-04-06T00:20:58;6.30;;;4.00;;
33836;SDS011;20140;49.356;8.812;2023-04-06T00:23:23;5.60;;;4.57;;
33836;SDS011;20140;49.356;8.812;2023-04-06T00:25:49;6.23;;;4.57;;
33836;SDS011;20140;49.356;8.812;2023-04-06T00:28:17;5.30;;;4.30;;
33836;SDS011;20140;49.356;8.812;2023-04-06T00:30:42;5.32;;;4.43;;
33836;SDS011;20140;49.356;8.812;2023-04-06T00:33:08;6.28;;;4.70;;
33836;SDS011;20140;49.356;8.812;2023-04-06T00:35:34;4.30;;;3.85;;
33836;SDS011;20140;49.356;8.812;2023-04-06T00:37:59;5.55;;;4.47;;
33836;SDS011;20140;49.356;8.812;2023-04-06T00:40:25;4.97;;;3.83;;
33836;SDS011;20140;49.356;8.812;2023-04-06T00:42:53;7.03;;;4.50;;
33836;SDS011;20140;49.356;8.812;2023-04-06T00:45:21;7.47;;;4.55;;
33836;SDS011;20140;49.356;8.812;2023-04-06T00:47:46;6.37;;;4.90;;
33836;SDS011;20140;49.356;8.812;2023-04-06T00:50:12;5.60;;;4.83;;
33836;SDS011;20140;49.356;8.812;2023-04-06T00:52:37;5.87;;;4.53;;
33836;SDS011;20140;49.356;8.812;2023-04-06T00:55:03;5.10;;;4.60;;
33836;SDS011;20140;49.356;8.812;2023-04-06T00:57:29;6.07;;;4.20;;
33836;SDS011;20140;49.356;8.812;2023-04-06T00:59:56;5.75;;;4.13;;
33836;SDS011;20140;49.356;8.812;2023-04-06T01:02:21;7.60;;;4.55;;
33836;SDS011;20140;49.356;8.812;2023-04-06T01:04:48;5.85;;;4.35;;
33836;SDS011;20140;49.356;8.812;2023-04-06T01:07:13;5.82;;;4.28;;
33836;SDS011;20140;49.356;8.812;2023-04-06T01:09:39;6.03;;;4.70;;
33836;SDS011;20140;49.356;8.812;2023-04-06T01:12:06;6.50;;;4.50;;
33836;SDS011;20140;49.356;8.812;2023-04-06T01:14:32;5.00;;;4.55;;
33836;SDS011;20140;49.356;8.812;2023-04-06T01:16:58;6.60;;;4.85;;
33836;SDS011;20140;49.356;8.812;2023-04-06T01:19:25;8.18;;;4.80;;
33836;SDS011;20140;49.356;8.812;2023-04-06T01:21:51;6.07;;;4.82;;
33836;SDS011;20140;49.356;8.812;2023-04-06T01:24:18;6.05;;;4.82;;
33836;SDS011;20140;49.356;8.812;2023-04-06T01:26:44;6.22;;;4.18;;
33836;SDS011;20140;49.356;8.812;2023-04-06T01:29:10;8.00;;;6.67;;
33836;SDS011;20140;49.356;8.812;2023-04-06T01:31:36;6.88;;;4.80;;
33836;SDS011;20140;49.356;8.812;2023-04-06T01:34:04;7.95;;;4.32;;
33836;SDS011;20140;49.356;8.812;2023-04-06T01:36:29;5.93;;;4.63;;
33836;SDS011;20140;49.356;8.812;2023-04-06T01:38:55;5.80;;;4.63;;
33836;SDS011;20140;49.356;8.812;2023-04-06T01:41:23;6.40;;;4.68;;
33836;SDS011;20140;49.356;8.812;2023-04-06T01:43:49;4.90;;;4.40;;
33836;SDS011;20140;49.356;8.812;2023-04-06T01:46:19;7.60;;;4.40;;
33836;SDS011;20140;49.356;8.812;2023-04-06T01:48:45;6.10;;;4.57;;
33836;SDS011;20140;49.356;8.812;2023-04-06T01:51:10;6.68;;;4.45;;
33836;SDS011;20140;49.356;8.812;2023-04-06T01:53:36;6.80;;;4.82;;
33836;SDS011;20140;49.356;8.812;2023-04-06T01:56:01;4.75;;;4.18;;
33836;SDS011;20140;49.356;8.812;2023-04-06T01:58:27;5.43;;;4.93;;
33836;SDS011;20140;49.356;8.812;2023-04-06T02:00:52;6.45;;;4.47;;
33836;SDS011;20140;49.356;8.812;2023-04-06T02:03:18;5.10;;;4.60;;
33836;SDS011;20140;49.356;8.812;2023-04-06T02:05:43;5.93;;;4.60;;
33836;SDS011;20140;49.356;8.812;2023-04-06T02:08:08;6.17;;;4.37;;
33836;SDS011;20140;49.356;8.812;2023-04-06T02:10:34;5.90;;;4.67;;
33836;SDS011;20140;49.356;8.812;2023-04-06T02:13:00;5.67;;;4.60;;
33836;SDS011;20140;49.356;8.812;2023-04-06T02:15:26;5.50;;;3.83;;
33836;SDS011;20140;49.356;8.812;2023-04-06T02:17:52;5.35;;;4.65;;
33836;SDS011;20140;49.356;8.812;2023-04-06T02:20:18;5.00;;;4.07;;
33836;SDS011;20140;49.356;8.812;2023-04-06T02:22:43;7.30;;;5.50;;
33836;SDS011;20140;49.356;8.812;2023-04-06T02:25:09;5.80;;;4.77;;
33836;SDS011;20140;49.356;8.812;2023-04-06T02:27:35;5.10;;;4.30;;
33836;SDS011;20140;49.356;8.812;2023-04-06T02:30:01;6.15;;;4.78;;
33836;SDS011;20140;49.356;8.812;2023-04-06T02:32:30;6.53;;;4.30;;
33836;SDS011;20140;49.356;8.812;2023-04-06T02:34:55;6.00;;;4.77;;
33836;SDS011;20140;49.356;8.812;2023-04-06T02:37:21;4.93;;;4.40;;
33836;SDS011;20140;49.356;8.812;2023-04-06T02:39:48;4.53;;;4.13;;
33836;SDS011;20140;49.356;8.812;2023-04-06T02:42:13;5.43;;;4.30;;
33836;SDS011;20140;49.356;8.812;2023-04-06T02:44:40;5.07;;;4.57;;
33836;SDS011;20140;49.356;8.812;2023-04-06T02:47:06;7.32;;;4.25;;
33836;SDS011;20140;49.356;8.812;2023-04-06T02:49:32;5.00;;;4.18;;
33836;SDS011;20140;49.356;8.812;2023-04-06T02:51:57;5.63;;;4.68;;
33836;SDS011;20140;49.356;8.812;2023-04-06T02:54:23;7.03;;;4.43;;
33836;SDS011;20140;49.356;8.812;2023-04-06T02:56:48;5.93;;;4.70;;
33836;SDS011;20140;49.356;8.812;2023-04-06T02:59:14;5.90;;;4.72;;
33836;SDS011;20140;49.356;8.812;2023-04-06T03:01:39;5.03;;;4.53;;
33836;SDS011;20140;49.356;8.812;2023-04-06T03:04:05;9.98;;;4.80;;
33836;SDS011;20140;49.356;8.812;2023-04-06T03:06:31;5.57;;;4.57;;
33836;SDS011;20140;49.356;8.812;2023-04-06T03:08:56;6.90;;;4.27;;
33836;SDS011;20140;49.356;8.812;2023-04-06T03:11:22;6.57;;;5.17;;
33836;SDS011;20140;49.356;8.812;2023-04-06T03:13:47;8.17;;;4.60;;
33836;SDS011;20140;49.356;8.812;2023-04-06T03:16:13;4.93;;;4.23;;
33836;SDS011;20140;49.356;8.812;2023-04-06T03:18:38;6.10;;;4.40;;
33836;SDS011;20140;49.356;8.812;2023-04-06T03:21:04;5.73;;;5.00;;
33836;SDS011;20140;49.356;8.812;2023-04-06T03:23:30;4.97;;;4.37;;
33836;SDS011;20140;49.356;8.812;2023-04-06T03:25:55;5.53;;;4.90;;
33836;SDS011;20140;49.356;8.812;2023-04-06T03:28:21;5.40;;;4.70;;
33836;SDS011;20140;49.356;8.812;2023-04-06T03:30:46;5.53;;;4.83;;
33836;SDS011;20140;49.356;8.812;2023-04-06T03:33:11;7.47;;;4.60;;
33836;SDS011;20140;49.356;8.812;2023-04-06T03:35:37;6.83;;;4.83;;
33836;SDS011;20140;49.356;8.812;2023-04-06T03:38:03;7.20;;;5.10;;
33836;SDS011;20140;49.356;8.812;2023-04-06T03:40:30;6.07;;;4.47;;
33836;SDS011;20140;49.356;8.812;2023-04-06T03:42:55;5.70;;;4.93;;
33836;SDS011;20140;49.356;8.812;2023-04-06T03:45:21;5.23;;;4.73;;
33836;SDS011;20140;49.356;8.812;2023-04-06T03:47:46;7.47;;;5.23;;
33836;SDS011;20140;49.356;8.812;2023-04-06T03:50:12;8.37;;;5.47;;
33836;SDS011;20140;49.356;8.812;2023-04-06T03:52:37;7.37;;;5.30;;
33836;SDS011;20140;49.356;8.812;2023-04-06T03:55:03;5.23;;;4.33;;
33836;SDS011;20140;49.356;8.812;2023-04-06T03:57:29;6.93;;;4.55;;
33836;SDS011;20140;49.356;8.812;2023-04-06T03:59:55;6.53;;;5.30;;
33836;SDS011;20140;49.356;8.812;2023-04-06T04:02:20;5.70;;;4.77;;
33836;SDS011;20140;49.356;8.812;2023-04-06T04:04:46;6.53;;;5.17;;
33836;SDS011;20140;49.356;8.812;2023-04-06T04:07:11;5.50;;;4.50;;
33836;SDS011;20140;49.356;8.812;2023-04-06T04:09:37;6.03;;;5.43;;
33836;SDS011;20140;49.356;8.812;2023-04-06T04:12:02;5.90;;;5.33;;
33836;SDS011;20140;49.356;8.812;2023-04-06T04:14:28;7.27;;;5.50;;
33836;SDS011;20140;49.356;8.812;2023-04-06T04:16:53;7.10;;;5.67;;
33836;SDS011;20140;49.356;8.812;2023-04-06T04:19:19;6.13;;;4.70;;
33836;SDS011;20140;49.356;8.812;2023-04-06T04:21:45;6.10;;;5.03;;
33836;SDS011;20140;49.356;8.812;2023-04-06T04:24:12;6.15;;;5.35;;
33836;SDS011;20140;49.356;8.812;2023-04-06T04:26:38;5.90;;;4.85;;
33836;SDS011;20140;49.356;8.812;2023-04-06T04:29:04;6.20;;;4.95;;
33836;SDS011;20140;49.356;8.812;2023-04-06T04:31:30;8.13;;;4.60;;
33836;SDS011;20140;49.356;8.812;2023-04-06T04:33:57;6.10;;;5.40;;
33836;SDS011;20140;49.356;8.812;2023-04-06T04:36:23;8.77;;;6.05;;
33836;SDS011;20140;49.356;8.812;2023-04-06T04:38:50;7.25;;;5.38;;
33836;SDS011;20140;49.356;8.812;2023-04-06T04:41:16;8.38;;;5.93;;
33836;SDS011;20140;49.356;8.812;2023-04-06T04:43:41;8.30;;;5.10;;
33836;SDS011;20140;49.356;8.812;2023-04-06T04:46:06;6.53;;;4.53;;
33836;SDS011;20140;49.356;8.812;2023-04-06T04:48:32;8.00;;;6.00;;
33836;SDS011;20140;49.356;8.812;2023-04-06T04:50:58;7.90;;;6.30;;
33836;SDS011;20140;49.356;8.812;2023-04-06T04:53:23;7.20;;;5.47;;
33836;SDS011;20140;49.356;8.812;2023-04-06T04:55:49;9.00;;;5.80;;
33836;SDS011;20140;49.356;8.812;2023-04-06T04:58:15;6.23;;;5.03;;
33836;SDS011;20140;49.356;8.812;2023-04-06T05:00:41;9.37;;;6.20;;
33836;SDS011;20140;49.356;8.812;2023-04-06T05:03:07;7.68;;;5.95;;
33836;SDS011;20140;49.356;8.812;2023-04-06T05:05:38;7.45;;;5.93;;
33836;SDS011;20140;49.356;8.812;2023-04-06T05:08:04;7.33;;;5.57;;
33836;SDS011;20140;49.356;8.812;2023-04-06T05:10:30;8.67;;;6.47;;
33836;SDS011;20140;49.356;8.812;2023-04-06T05:12:55;6.60;;;5.23;;
33836;SDS011;20140;49.356;8.812;2023-04-06T05:15:21;6.97;;;5.70;;
33836;SDS011;20140;49.356;8.812;2023-04-06T05:17:46;6.57;;;5.23;;
33836;SDS011;20140;49.356;8.812;2023-04-06T05:20:12;7.40;;;5.23;;
33836;SDS011;20140;49.356;8.812;2023-04-06T05:22:37;7.17;;;5.40;;
33836;SDS011;20140;49.356;8.812;2023-04-06T05:25:03;9.23;;;6.30;;
33836;SDS011;20140;49.356;8.812;2023-04-06T05:27:29;8.82;;;5.97;;
33836;SDS011;20140;49.356;8.812;2023-04-06T05:29:56;8.00;;;5.78;;
33836;SDS011;20140;49.356;8.812;2023-04-06T05:32:22;8.40;;;5.07;;
33836;SDS011;20140;49.356;8.812;2023-04-06T05:34:49;6.22;;;5.40;;
33836;SDS011;20140;49.356;8.812;2023-04-06T05:37:15;5.95;;;5.30;;
33836;SDS011;20140;49.356;8.812;2023-04-06T05:39:40;6.60;;;5.47;;
33836;SDS011;20140;49.356;8.812;2023-04-06T05:42:06;7.17;;;5.43;;
33836;SDS011;20140;49.356;8.812;2023-04-06T05:44:32;6.83;;;5.10;;
33836;SDS011;20140;49.356;8.812;2023-04-06T05:46:57;6.43;;;5.57;;
33836;SDS011;20140;49.356;8.812;2023-04-06T05:49:23;8.03;;;5.87;;
33836;SDS011;20140;49.356;8.812;2023-04-06T05:51:48;6.90;;;5.47;;
33836;SDS011;20140;49.356;8.812;2023-04-06T05:54:14;6.47;;;5.67;;
33836;SDS011;20140;49.356;8.812;2023-04-06T05:56:39;8.10;;;5.60;;
33836;SDS011;20140;49.356;8.812;2023-04-06T05:59:05;8.97;;;6.97;;
33836;SDS011;20140;49.356;8.812;2023-04-06T06:01:32;7.78;;;5.72;;
33836;SDS011;20140;49.356;8.812;2023-04-06T06:04:00;7.35;;;6.15;;
33836;SDS011;20140;49.356;8.812;2023-04-06T06:06:27;6.95;;;6.25;;
33836;SDS011;20140;49.356;8.812;2023-04-06T06:08:53;8.23;;;6.18;;
33836;SDS011;20140;49.356;8.812;2023-04-06T06:11:20;8.27;;;5.85;;
33836;SDS011;20140;49.356;8.812;2023-04-06T06:13:45;7.73;;;6.00;;
33836;SDS011;20140;49.356;8.812;2023-04-06T06:16:11;8.63;;;5.80;;
33836;SDS011;20140;49.356;8.812;2023-04-06T06:18:37;8.53;;;5.67;;
33836;SDS011;20140;49.356;8.812;2023-04-06T06:21:02;6.90;;;5.77;;
33836;SDS011;20140;49.356;8.812;2023-04-06T06:23:28;9.73;;;6.50;;
33836;SDS011;20140;49.356;8.812;2023-04-06T06:25:54;7.20;;;6.17;;
33836;SDS011;20140;49.356;8.812;2023-04-06T06:28:22;7.25;;;5.10;;
33836;SDS011;20140;49.356;8.812;2023-04-06T06:30:49;8.68;;;5.80;;
33836;SDS011;20140;49.356;8.812;2023-04-06T06:33:15;6.85;;;5.28;;
33836;SDS011;20140;49.356;8.812;2023-04-06T06:35:41;9.38;;;5.40;;
33836;SDS011;20140;49.356;8.812;2023-04-06T06:38:06;10.43;;;6.85;;
33836;SDS011;20140;49.356;8.812;2023-04-06T06:40:32;10.13;;;6.00;;
33836;SDS011;20140;49.356;8.812;2023-04-06T06:42:58;7.80;;;6.30;;
33836;SDS011;20140;49.356;8.812;2023-04-06T06:45:24;6.32;;;5.43;;
33836;SDS011;20140;49.356;8.812;2023-04-06T06:47:50;7.57;;;6.03;;
33836;SDS011;20140;49.356;8.812;2023-04-06T06:50:16;7.03;;;6.32;;
33836;SDS011;20140;49.356;8.812;2023-04-06T06:52:41;7.57;;;5.80;;
33836;SDS011;20140;49.356;8.812;2023-04-06T06:55:07;7.60;;;5.78;;
33836;SDS011;20140;49.356;8.812;2023-04-06T06:57:34;8.07;;;6.43;;
33836;SDS011;20140;49.356;8.812;2023-04-06T07:00:00;7.93;;;6.77;;
33836;SDS011;20140;49.356;8.812;2023-04-06T07:02:25;8.70;;;7.13;;
33836;SDS011;20140;49.356;8.812;2023-04-06T07:04:51;8.88;;;6.80;;
33836;SDS011;20140;49.356;8.812;2023-04-06T07:07:16;8.30;;;7.13;;
33836;SDS011;20140;49.356;8.812;2023-04-06T07:09:42;10.77;;;6.97;;
33836;SDS011;20140;49.356;8.812;2023-04-06T07:12:07;10.07;;;6.50;;
33836;SDS011;20140;49.356;8.812;2023-04-06T07:14:33;7.77;;;6.60;;
33836;SDS011;20140;49.356;8.812;2023-04-06T07:16:58;7.83;;;6.27;;
33836;SDS011;20140;49.356;8.812;2023-04-06T07:19:24;10.33;;;6.87;;
33836;SDS011;20140;49.356;8.812;2023-04-06T07:21:49;8.43;;;6.83;;
33836;SDS011;20140;49.356;8.812;2023-04-06T07:24:15;9.87;;;7.13;;
33836;SDS011;20140;49.356;8.812;2023-04-06T07:26:41;9.90;;;6.55;;
33836;SDS011;20140;49.356;8.812;2023-04-06T07:29:07;12.45;;;6.78;;
33836;SDS011;20140;49.356;8.812;2023-04-06T07:31:32;7.50;;;6.40;;
33836;SDS011;20140;49.356;8.812;2023-04-06T07:34:00;9.75;;;7.35;;
33836;SDS011;20140;49.356;8.812;2023-04-06T07:36:25;9.23;;;7.37;;
33836;SDS011;20140;49.356;8.812;2023-04-06T07:38:51;9.00;;;7.80;;
33836;SDS011;20140;49.356;8.812;2023-04-06T07:41:17;9.57;;;7.73;;
33836;SDS011;20140;49.356;8.812;2023-04-06T07:43:42;9.30;;;7.63;;
33836;SDS011;20140;49.356;8.812;2023-04-06T07:46:10;8.93;;;7.30;;
33836;SDS011;20140;49.356;8.812;2023-04-06T07:48:35;9.70;;;7.67;;
33836;SDS011;20140;49.356;8.812;2023-04-06T07:51:03;11.15;;;8.15;;
33836;SDS011;20140;49.356;8.812;2023-04-06T07:53:29;9.65;;;7.60;;
33836;SDS011;20140;49.356;8.812;2023-04-06T07:55:56;10.20;;;8.35;;
33836;SDS011;20140;49.356;8.812;2023-04-06T07:58:22;13.75;;;9.68;;
33836;SDS011;20140;49.356;8.812;2023-04-06T08:00:48;13.20;;;9.00;;
33836;SDS011;20140;49.356;8.812;2023-04-06T08:03:14;13.67;;;10.00;;
33836;SDS011;20140;49.356;8.812;2023-04-06T08:05:39;10.52;;;8.68;;
33836;SDS011;20140;49.356;8.812;2023-04-06T08:08:05;9.93;;;8.13;;
33836;SDS011;20140;49.356;8.812;2023-04-06T08:10:30;13.27;;;9.88;;
33836;SDS011;20140;49.356;8.812;2023-04-06T08:12:56;10.63;;;9.25;;
33836;SDS011;20140;49.356;8.812;2023-04-06T08:15:21;13.38;;;9.15;;
33836;SDS011;20140;49.356;8.812;2023-04-06T08:17:47;14.97;;;10.37;;
33836;SDS011;20140;49.356;8.812;2023-04-06T08:20:12;10.67;;;8.67;;
33836;SDS011;20140;49.356;8.812;2023-04-06T08:22:38;10.87;;;8.57;;
33836;SDS011;20140;49.356;8.812;2023-04-06T08:25:03;13.33;;;9.20;;
33836;SDS011;20140;49.356;8.812;2023-04-06T08:27:29;9.57;;;8.25;;
33836;SDS011;20140;49.356;8.812;2023-04-06T08:29:55;11.20;;;9.83;;
33836;SDS011;20140;49.356;8.812;2023-04-06T08:32:20;12.97;;;10.07;;
33836;SDS011;20140;49.356;8.812;2023-04-06T08:34:46;10.23;;;8.83;;
33836;SDS011;20140;49.356;8.812;2023-04-06T08:37:11;13.43;;;9.25;;
33836;SDS011;20140;49.356;8.812;2023-04-06T08:39:37;13.35;;;10.13;;
33836;SDS011;20140;49.356;8.812;2023-04-06T08:42:02;11.85;;;9.70;;
33836;SDS011;20140;49.356;8.812;2023-04-06T08:44:28;11.67;;;8.97;;
33836;SDS011;20140;49.356;8.812;2023-04-06T08:46:55;10.70;;;9.23;;
33836;SDS011;20140;49.356;8.812;2023-04-06T08:49:20;10.18;;;9.07;;
33836;SDS011;20140;49.356;8.812;2023-04-06T08:51:46;13.55;;;9.63;;
33836;SDS011;20140;49.356;8.812;2023-04-06T08:54:12;9.75;;;8.70;;
33836;SDS011;20140;49.356;8.812;2023-04-06T08:56:38;15.88;;;8.82;;
33836;SDS011;20140;49.356;8.812;2023-04-06T08:59:05;15.68;;;9.73;;
33836;SDS011;20140;49.356;8.812;2023-04-06T09:01:33;11.35;;;9.00;;
33836;SDS011;20140;49.356;8.812;2023-04-06T09:04:02;12.23;;;9.37;;
33836;SDS011;20140;49.356;8.812;2023-04-06T09:06:34;10.68;;;9.07;;
33836;SDS011;20140;49.356;8.812;2023-04-06T09:08:59;11.97;;;8.77;;
33836;SDS011;20140;49.356;8.812;2023-04-06T09:11:25;10.33;;;8.03;;
33836;SDS011;20140;49.356;8.812;2023-04-06T09:13:52;11.97;;;8.53;;
33836;SDS011;20140;49.356;8.812;2023-04-06T09:16:19;11.50;;;8.07;;
33836;SDS011;20140;49.356;8.812;2023-04-06T09:18:45;11.35;;;9.05;;
33836;SDS011;20140;49.356;8.812;2023-04-06T09:21:12;10.88;;;8.15;;
33836;SDS011;20140;49.356;8.812;2023-04-06T09:23:38;9.30;;;8.27;;
33836;SDS011;20140;49.356;8.812;2023-04-06T09:26:04;11.70;;;8.65;;
33836;SDS011;20140;49.356;8.812;2023-04-06T09:28:40;12.07;;;8.32;;
33836;SDS011;20140;49.356;8.812;2023-04-06T09:31:16;12.93;;;8.48;;
33836;SDS011;20140;49.356;8.812;2023-04-06T09:33:46;12.10;;;8.37;;
33836;SDS011;20140;49.356;8.812;2023-04-06T09:36:12;11.20;;;8.53;;
33836;SDS011;20140;49.356;8.812;2023-04-06T09:38:56;10.82;;;8.57;;
33836;SDS011;20140;49.356;8.812;2023-04-06T09:41:24;10.43;;;8.90;;
33836;SDS011;20140;49.356;8.812;2023-04-06T09:43:51;15.70;;;9.38;;
33836;SDS011;20140;49.356;8.812;2023-04-06T09:46:17;12.75;;;10.07;;
33836;SDS011;20140;49.356;8.812;2023-04-06T09:48:46;10.93;;;8.63;;
33836;SDS011;20140;49.356;8.812;2023-04-06T09:51:14;11.23;;;8.60;;
33836;SDS011;20140;49.356;8.812;2023-04-06T09:53:42;11.73;;;8.75;;
33836;SDS011;20140;49.356;8.812;2023-04-06T09:56:17;15.60;;;9.57;;
33836;SDS011;20140;49.356;8.812;2023-04-06T09:58:46;14.63;;;10.65;;
33836;SDS011;20140;49.356;8.812;2023-04-06T10:01:18;10.80;;;8.75;;
33836;SDS011;20140;49.356;8.812;2023-04-06T10:06:11;10.57;;;9.03;;
33836;SDS011;20140;49.356;8.812;2023-04-06T10:08:39;12.10;;;9.23;;
33836;SDS011;20140;49.356;8.812;2023-04-06T10:11:06;12.13;;;8.98;;
33836;SDS011;20140;49.356;8.812;2023-04-06T10:13:33;13.57;;;9.50;;
33836;SDS011;20140;49.356;8.812;2023-04-06T10:15:59;12.98;;;9.32;;
33836;SDS011;20140;49.356;8.812;2023-04-06T10:18:26;12.02;;;9.48;;
33836;SDS011;20140;49.356;8.812;2023-04-06T10:23:49;12.50;;;10.05;;
33836;SDS011;20140;49.356;8.812;2023-04-06T10:26:26;11.88;;;9.13;;
33836;SDS011;20140;49.356;8.812;2023-04-06T10:28:51;11.65;;;9.20;;
33836;SDS011;20140;49.356;8.812;2023-04-06T10:31:24;13.38;;;8.73;;
33836;SDS011;20140;49.356;8.812;2023-04-06T10:33:55;11.38;;;9.52;;
33836;SDS011;20140;49.356;8.812;2023-04-06T10:36:33;11.45;;;9.77;;
33836;SDS011;20140;49.356;8.812;2023-04-06T10:39:00;12.57;;;8.80;;
33836;SDS011;20140;49.356;8.812;2023-04-06T10:41:32;12.90;;;8.38;;
33836;SDS011;20140;49.356;8.812;2023-04-06T10:44:08;14.13;;;10.65;;
33836;SDS011;20140;49.356;8.812;2023-04-06T10:46:59;11.15;;;8.65;;
33836;SDS011;20140;49.356;8.812;2023-04-06T10:49:28;13.23;;;9.82;;
33836;SDS011;20140;49.356;8.812;2023-04-06T10:51:54;11.87;;;8.60;;
33836;SDS011;20140;49.356;8.812;2023-04-06T10:54:21;10.15;;;8.65;;
33836;SDS011;20140;49.356;8.812;2023-04-06T10:56:47;10.65;;;9.32;;
33836;SDS011;20140;49.356;8.812;2023-04-06T10:59:13;12.50;;;8.43;;
33836;SDS011;20140;49.356;8.812;2023-04-06T11:01:45;12.05;;;8.02;;
33836;SDS011;20140;49.356;8.812;2023-04-06T11:04:15;11.45;;;8.57;;
33836;SDS011;20140;49.356;8.812;2023-04-06T11:06:48;10.57;;;7.60;;
33836;SDS011;20140;49.356;8.812;2023-04-06T11:09:27;9.40;;;7.28;;
33836;SDS011;20140;49.356;8.812;2023-04-06T11:11:54;10.07;;;8.43;;
33836;SDS011;20140;49.356;8.812;2023-04-06T11:14:20;11.95;;;9.05;;
33836;SDS011;20140;49.356;8.812;2023-04-06T11:16:47;12.60;;;8.70;;
33836;SDS011;20140;49.356;8.812;2023-04-06T11:19:14;9.18;;;7.82;;
33836;SDS011;20140;49.356;8.812;2023-04-06T11:21:41;9.25;;;7.72;;
33836;SDS011;20140;49.356;8.812;2023-04-06T11:24:17;12.05;;;8.25;;
33836;SDS011;20140;49.356;8.812;2023-04-06T11:26:47;10.75;;;8.30;;
33836;SDS011;20140;49.356;8.812;2023-04-06T11:29:16;9.98;;;7.65;;
33836;SDS011;20140;49.356;8.812;2023-04-06T11:31:47;8.30;;;6.30;;
33836;SDS011;20140;49.356;8.812;2023-04-06T11:34:16;9.73;;;7.05;;
33836;SDS011;20140;49.356;8.812;2023-04-06T11:36:43;9.05;;;7.40;;
33836;SDS011;20140;49.356;8.812;2023-04-06T11:39:10;9.70;;;6.75;;
33836;SDS011;20140;49.356;8.812;2023-04-06T11:41:39;10.00;;;7.75;;
33836;SDS011;20140;49.356;8.812;2023-04-06T11:44:05;10.30;;;7.65;;
33836;SDS011;20140;49.356;8.812;2023-04-06T11:46:31;11.13;;;7.15;;
33836;SDS011;20140;49.356;8.812;2023-04-06T11:49:00;10.73;;;7.57;;
33836;SDS011;20140;49.356;8.812;2023-04-06T11:51:27;10.35;;;7.43;;
33836;SDS011;20140;49.356;8.812;2023-04-06T11:53:53;11.77;;;7.82;;
33836;SDS011;20140;49.356;8.812;2023-04-06T11:56:26;10.02;;;6.88;;
33836;SDS011;20140;49.356;8.812;2023-04-06T11:58:57;10.25;;;7.97;;
33836;SDS011;20140;49.356;8.812;2023-04-06T12:01:25;11.97;;;8.77;;
33836;SDS011;20140;49.356;8.812;2023-04-06T12:03:51;12.30;;;8.38;;
33836;SDS011;20140;49.356;8.812;2023-04-06T12:06:17;10.18;;;8.25;;
33836;SDS011;20140;49.356;8.812;2023-04-06T12:08:43;11.00;;;7.93;;
33836;SDS011;20140;49.356;8.812;2023-04-06T12:11:09;9.43;;;7.80;;
33836;SDS011;20140;49.356;8.812;2023-04-06T12:13:35;10.00;;;9.00;;
33836;SDS011;20140;49.356;8.812;2023-04-06T12:16:01;10.63;;;8.50;;
33836;SDS011;20140;49.356;8.812;2023-04-06T12:18:26;11.55;;;8.95;;
33836;SDS011;20140;49.356;8.812;2023-04-06T12:20:52;11.90;;;9.57;;
33836;SDS011;20140;49.356;8.812;2023-04-06T12:23:18;9.50;;;8.37;;
33836;SDS011;20140;49.356;8.812;2023-04-06T12:25:44;10.27;;;7.43;;
33836;SDS011;20140;49.356;8.812;2023-04-06T12:28:10;9.17;;;7.43;;
33836;SDS011;20140;49.356;8.812;2023-04-06T12:30:36;9.10;;;7.38;;
33836;SDS011;20140;49.356;8.812;2023-04-06T12:33:01;10.93;;;8.07;;
33836;SDS011;20140;49.356;8.812;2023-04-06T12:35:27;10.68;;;7.82;;
33836;SDS011;20140;49.356;8.812;2023-04-06T12:37:52;10.67;;;8.10;;
33836;SDS011;20140;49.356;8.812;2023-04-06T12:40:18;11.88;;;8.88;;
33836;SDS011;20140;49.356;8.812;2023-04-06T12:42:44;11.27;;;9.05;;
33836;SDS011;20140;49.356;8.812;2023-04-06T12:45:11;9.23;;;7.50;;
33836;SDS011;20140;49.356;8.812;2023-04-06T12:47:37;8.20;;;6.45;;
33836;SDS011;20140;49.356;8.812;2023-04-06T12:50:03;9.13;;;7.43;;
33836;SDS011;20140;49.356;8.812;2023-04-06T12:52:30;9.00;;;6.60;;
33836;SDS011;20140;49.356;8.812;2023-04-06T12:54:56;9.18;;;6.45;;
33836;SDS011;20140;49.356;8.812;2023-04-06T12:57:24;8.70;;;7.13;;
33836;SDS011;20140;49.356;8.812;2023-04-06T12:59:50;10.02;;;6.13;;
33836;SDS011;20140;49.356;8.812;2023-04-06T13:02:16;8.02;;;6.57;;
33836;SDS011;20140;49.356;8.812;2023-04-06T13:04:42;8.90;;;7.25;;
33836;SDS011;20140;49.356;8.812;2023-04-06T13:07:07;8.30;;;6.90;;
33836;SDS011;20140;49.356;8.812;2023-04-06T13:09:33;9.30;;;6.80;;
33836;SDS011;20140;49.356;8.812;2023-04-06T13:11:58;7.63;;;6.70;;
33836;SDS011;20140;49.356;8.812;2023-04-06T13:14:24;7.03;;;5.45;;
33836;SDS011;20140;49.356;8.812;2023-04-06T13:16:50;6.43;;;5.27;;
33836;SDS011;20140;49.356;8.812;2023-04-06T13:19:16;10.10;;;6.57;;
33836;SDS011;20140;49.356;8.812;2023-04-06T13:21:43;7.40;;;6.35;;
33836;SDS011;20140;49.356;8.812;2023-04-06T13:24:08;9.43;;;6.57;;
33836;SDS011;20140;49.356;8.812;2023-04-06T13:26:34;8.60;;;6.63;;
33836;SDS011;20140;49.356;8.812;2023-04-06T13:29:00;7.80;;;6.00;;
33836;SDS011;20140;49.356;8.812;2023-04-06T13:31:27;7.32;;;5.95;;
33836;SDS011;20140;49.356;8.812;2023-04-06T13:33:53;8.48;;;6.07;;
33836;SDS011;20140;49.356;8.812;2023-04-06T13:36:18;8.43;;;5.60;;
33836;SDS011;20140;49.356;8.812;2023-04-06T13:38:44;8.10;;;5.30;;
33836;SDS011;20140;49.356;8.812;2023-04-06T13:41:10;6.85;;;5.28;;
33836;SDS011;20140;49.356;8.812;2023-04-06T13:43:46;8.25;;;6.03;;
33836;SDS011;20140;49.356;8.812;2023-04-06T13:46:12;5.38;;;4.50;;
33836;SDS011;20140;49.356;8.812;2023-04-06T13:48:37;15.18;;;10.25;;
33836;SDS011;20140;49.356;8.812;2023-04-06T13:51:12;6.63;;;5.43;;
33836;SDS011;20140;49.356;8.812;2023-04-06T13:53:38;6.80;;;6.10;;
33836;SDS011;20140;49.356;8.812;2023-04-06T13:56:04;6.60;;;5.43;;
33836;SDS011;20140;49.356;8.812;2023-04-06T13:58:30;6.67;;;5.97;;
33836;SDS011;20140;49.356;8.812;2023-04-06T14:01:02;7.10;;;5.18;;
33836;SDS011;20140;49.356;8.812;2023-04-06T14:03:32;6.25;;;5.28;;
33836;SDS011;20140;49.356;8.812;2023-04-06T14:05:58;13.20;;;8.63;;
33836;SDS011;20140;49.356;8.812;2023-04-06T14:08:23;6.47;;;5.25;;
33836;SDS011;20140;49.356;8.812;2023-04-06T14:10:49;6.93;;;5.70;;
33836;SDS011;20140;49.356;8.812;2023-04-06T14:13:14;6.47;;;5.37;;
33836;SDS011;20140;49.356;8.812;2023-04-06T14:15:40;31.65;;;23.55;;
33836;SDS011;20140;49.356;8.812;2023-04-06T14:18:07;13.07;;;10.25;;
33836;SDS011;20140;49.356;8.812;2023-04-06T14:20:33;8.37;;;6.30;;
33836;SDS011;20140;49.356;8.812;2023-04-06T14:22:59;9.02;;;6.78;;
33836;SDS011;20140;49.356;8.812;2023-04-06T14:25:26;8.70;;;7.28;;
33836;SDS011;20140;49.356;8.812;2023-04-06T14:27:51;8.80;;;5.87;;
33836;SDS011;20140;49.356;8.812;2023-04-06T14:30:17;8.73;;;6.57;;
33836;SDS011;20140;49.356;8.812;2023-04-06T14:32:43;6.88;;;5.20;;
33836;SDS011;20140;49.356;8.812;2023-04-06T14:35:09;8.60;;;6.13;;
33836;SDS011;20140;49.356;8.812;2023-04-06T14:37:35;7.68;;;6.25;;
33836;SDS011;20140;49.356;8.812;2023-04-06T14:40:00;7.68;;;5.63;;
33836;SDS011;20140;49.356;8.812;2023-04-06T14:42:26;8.90;;;6.07;;
33836;SDS011;20140;49.356;8.812;2023-04-06T14:44:52;7.80;;;5.78;;